sensor_id;sensor_type;location;lat;lon;timestamp;temperature;humidity
7143;DHT22;3613;48.902;9.204;2023-10-19T00:00:31;10.40;99.90
7143;DHT22;3613;48.902;9.204;2023-10-19T00:03:02;10.50;99.90
7143;DHT22;3613;48.902;9.204;2023-10-19T00:05:29;10.50;99.90
7143;DHT22;3613;48.902;9.204;2023-10-19T00:07:56;10.50;99.90
7143;DHT22;3613;48.902;9.204;2023-10-19T00:10:23;10.50;99.90
7143;DHT22;3613;48.902;9.204;2023-10-19T00:12:51;10.50;99.90
7143;DHT22;3613;48.902;9.204;2023-10-19T00:15:27;10.50;99.90
7143;DHT22;3613;48.902;9.204;2023-10-19T00:17:56;10.50;99.90
7143;DHT22;3613;48.902;9.204;2023-10-19T00:20:22;10.50;99.90
7143;DHT22;3613;48.902;9.204;2023-10-19T00:23:06;10.50;99.90
7143;DHT22;3613;48.902;9.204;2023-10-19T00:25:32;10.80;99.90
7143;DHT22;3613;48.902;9.204;2023-10-19T00:28:00;10.50;99.90
7143;DHT22;3613;48.902;9.204;2023-10-19T00:30:31;10.60;99.90
7143;DHT22;3613;48.902;9.204;2023-10-19T00:33:02;10.60;99.90
7143;DHT22;3613;48.902;9.204;2023-10-19T00:35:40;10.60;99.90
7143;DHT22;3613;48.902;9.204;2023-10-19T00:40:53;10.60;99.90
7143;DHT22;3613;48.902;9.204;2023-10-19T00:43:35;10.60;99.90
7143;DHT22;3613;48.902;9.204;2023-10-19T00:46:15;10.60;99.90
7143;DHT22;3613;48.902;9.204;2023-10-19T00:48:59;10.70;99.90
7143;DHT22;3613;48.902;9.204;2023-10-19T00:51:52;10.70;99.90
7143;DHT22;3613;48.902;9.204;2023-10-19T00:54:25;10.70;99.90
7143;DHT22;3613;48.902;9.204;2023-10-19T00:57:03;10.70;99.90
7143;DHT22;3613;48.902;9.204;2023-10-19T00:59:40;10.70;99.90
7143;DHT22;3613;48.902;9.204;2023-10-19T01:02:16;10.70;99.90
7143;DHT22;3613;48.902;9.204;2023-10-19T01:04:55;10.70;99.90
7143;DHT22;3613;48.902;9.204;2023-10-19T01:07:22;10.70;99.90
7143;DHT22;3613;48.902;9.204;2023-10-19T01:09:56;10.80;99.90
7143;DHT22;3613;48.902;9.204;2023-10-19T01:12:23;10.80;99.90
7143;DHT22;3613;48.902;9.204;2023-10-19T01:15:08;10.80;99.90
7143;DHT22;3613;48.902;9.204;2023-10-19T01:17:50;10.80;99.90
7143;DHT22;3613;48.902;9.204;2023-10-19T01:20:27;10.90;99.90
7143;DHT22;3613;48.902;9.204;2023-10-19T01:25:44;11.00;99.90
7143;DHT22;3613;48.902;9.204;2023-10-19T01:28:30;11.00;99.90
7143;DHT22;3613;48.902;9.204;2023-10-19T01:31:12;11.00;99.90
7143;DHT22;3613;48.902;9.204;2023-10-19T01:33:54;11.10;99.90
7143;DHT22;3613;48.902;9.204;2023-10-19T01:36:25;11.00;99.90
7143;DHT22;3613;48.902;9.204;2023-10-19T01:38:56;11.00;99.90
7143;DHT22;3613;48.902;9.204;2023-10-19T01:41:29;11.10;99.90
7143;DHT22;3613;48.902;9.204;2023-10-19T01:46:30;11.10;99.90
7143;DHT22;3613;48.902;9.204;2023-10-19T01:49:00;11.10;99.90
7143;DHT22;3613;48.902;9.204;2023-10-19T01:51:30;11.10;99.90
7143;DHT22;3613;48.902;9.204;2023-10-19T01:53:56;11.10;99.90
7143;DHT22;3613;48.902;9.204;2023-10-19T01:56:23;11.00;99.90
7143;DHT22;3613;48.902;9.204;2023-10-19T01:58:49;11.00;99.90
7143;DHT22;3613;48.902;9.204;2023-10-19T02:01:17;11.00;99.90
7143;DHT22;3613;48.902;9.204;2023-10-19T02:04:07;11.00;99.90
7143;DHT22;3613;48.902;9.204;2023-10-19T02:06:37;10.90;99.90
7143;DHT22;3613;48.902;9.204;2023-10-19T02:09:09;10.90;99.90
7143;DHT22;3613;48.902;9.204;2023-10-19T02:14:10;10.90;99.90
7143;DHT22;3613;48.902;9.204;2023-10-19T02:16:46;10.90;99.90
7143;DHT22;3613;48.902;9.204;2023-10-19T02:19:14;10.90;99.90
7143;DHT22;3613;48.902;9.204;2023-10-19T02:24:10;11.00;99.90
7143;DHT22;3613;48.902;9.204;2023-10-19T02:26:41;10.90;99.90
7143;DHT22;3613;48.902;9.204;2023-10-19T02:29:06;10.90;99.90
7143;DHT22;3613;48.902;9.204;2023-10-19T02:31:40;11.10;99.90
7143;DHT22;3613;48.902;9.204;2023-10-19T02:34:11;11.10;99.90
7143;DHT22;3613;48.902;9.204;2023-10-19T02:36:38;11.10;99.90
7143;DHT22;3613;48.902;9.204;2023-10-19T02:39:06;11.10;99.90
7143;DHT22;3613;48.902;9.204;2023-10-19T02:41:34;11.10;99.90
7143;DHT22;3613;48.902;9.204;2023-10-19T02:44:07;11.10;99.90
7143;DHT22;3613;48.902;9.204;2023-10-19T02:49:09;11.20;99.90
7143;DHT22;3613;48.902;9.204;2023-10-19T02:51:40;11.20;99.90
7143;DHT22;3613;48.902;9.204;2023-10-19T02:54:09;11.20;99.90
7143;DHT22;3613;48.902;9.204;2023-10-19T02:56:43;11.20;99.90
7143;DHT22;3613;48.902;9.204;2023-10-19T02:59:13;11.20;99.90
7143;DHT22;3613;48.902;9.204;2023-10-19T03:01:45;11.20;99.90
7143;DHT22;3613;48.902;9.204;2023-10-19T03:06:43;11.10;99.90
7143;DHT22;3613;48.902;9.204;2023-10-19T03:09:09;11.00;99.90
7143;DHT22;3613;48.902;9.204;2023-10-19T03:11:43;10.90;99.90
7143;DHT22;3613;48.902;9.204;2023-10-19T03:14:10;10.90;99.90
7143;DHT22;3613;48.902;9.204;2023-10-19T03:16:37;10.80;99.90
7143;DHT22;3613;48.902;9.204;2023-10-19T03:21:33;10.60;99.90
7143;DHT22;3613;48.902;9.204;2023-10-19T03:24:09;10.40;99.90
7143;DHT22;3613;48.902;9.204;2023-10-19T03:26:39;10.50;99.90
7143;DHT22;3613;48.902;9.204;2023-10-19T03:29:16;10.50;99.90
7143;DHT22;3613;48.902;9.204;2023-10-19T03:36:47;10.40;99.90
7143;DHT22;3613;48.902;9.204;2023-10-19T03:41:43;10.20;99.90
7143;DHT22;3613;48.902;9.204;2023-10-19T03:44:13;10.10;99.90
7143;DHT22;3613;48.902;9.204;2023-10-19T03:51:50;10.00;99.90
7143;DHT22;3613;48.902;9.204;2023-10-19T03:54:48;10.00;99.90
7143;DHT22;3613;48.902;9.204;2023-10-19T03:57:16;10.10;99.90
7143;DHT22;3613;48.902;9.204;2023-10-19T03:59:46;10.00;99.90
7143;DHT22;3613;48.902;9.204;2023-10-19T04:02:15;9.90;99.90
7143;DHT22;3613;48.902;9.204;2023-10-19T04:04:49;9.90;99.90
7143;DHT22;3613;48.902;9.204;2023-10-19T04:07:18;9.80;99.90
7143;DHT22;3613;48.902;9.204;2023-10-19T04:09:56;9.80;99.90
7143;DHT22;3613;48.902;9.204;2023-10-19T04:12:40;9.80;99.90
7143;DHT22;3613;48.902;9.204;2023-10-19T04:15:08;9.80;99.90
7143;DHT22;3613;48.902;9.204;2023-10-19T04:17:47;9.70;99.90
7143;DHT22;3613;48.902;9.204;2023-10-19T04:20:17;9.70;99.90
7143;DHT22;3613;48.902;9.204;2023-10-19T04:22:46;9.90;99.90
7143;DHT22;3613;48.902;9.204;2023-10-19T04:25:13;9.90;99.90
7143;DHT22;3613;48.902;9.204;2023-10-19T04:27:39;9.90;99.90
7143;DHT22;3613;48.902;9.204;2023-10-19T04:32:50;9.90;99.90
7143;DHT22;3613;48.902;9.204;2023-10-19T04:35:19;10.00;99.90
7143;DHT22;3613;48.902;9.204;2023-10-19T04:37:52;10.00;99.90
7143;DHT22;3613;48.902;9.204;2023-10-19T04:40:22;10.00;99.90
7143;DHT22;3613;48.902;9.204;2023-10-19T04:42:52;9.90;99.90
7143;DHT22;3613;48.902;9.204;2023-10-19T04:45:18;9.80;99.90
7143;DHT22;3613;48.902;9.204;2023-10-19T04:47:49;9.80;99.90
7143;DHT22;3613;48.902;9.204;2023-10-19T04:50:17;9.80;99.90
7143;DHT22;3613;48.902;9.204;2023-10-19T04:57:35;9.90;99.90
7143;DHT22;3613;48.902;9.204;2023-10-19T05:00:03;9.80;99.90
7143;DHT22;3613;48.902;9.204;2023-10-19T05:02:29;9.70;99.90
7143;DHT22;3613;48.902;9.204;2023-10-19T05:12:15;9.40;99.90
7143;DHT22;3613;48.902;9.204;2023-10-19T05:14:42;9.40;99.90
7143;DHT22;3613;48.902;9.204;2023-10-19T05:17:08;9.30;99.90
7143;DHT22;3613;48.902;9.204;2023-10-19T05:19:38;9.30;99.90
7143;DHT22;3613;48.902;9.204;2023-10-19T05:22:09;9.20;99.90
7143;DHT22;3613;48.902;9.204;2023-10-19T05:24:35;9.30;99.90
7143;DHT22;3613;48.902;9.204;2023-10-19T05:27:05;9.30;99.90
7143;DHT22;3613;48.902;9.204;2023-10-19T05:29:31;9.20;99.90
7143;DHT22;3613;48.902;9.204;2023-10-19T05:36:59;9.20;99.90
7143;DHT22;3613;48.902;9.204;2023-10-19T05:39:30;9.10;99.90
7143;DHT22;3613;48.902;9.204;2023-10-19T05:44:29;9.20;99.90
7143;DHT22;3613;48.902;9.204;2023-10-19T05:46:55;9.20;99.90
7143;DHT22;3613;48.902;9.204;2023-10-19T05:54:15;9.30;99.90
7143;DHT22;3613;48.902;9.204;2023-10-19T05:56:44;9.30;99.90
7143;DHT22;3613;48.902;9.204;2023-10-19T06:11:28;9.60;99.90
7143;DHT22;3613;48.902;9.204;2023-10-19T06:14:00;9.70;99.90
7143;DHT22;3613;48.902;9.204;2023-10-19T06:18:53;9.80;99.90
7143;DHT22;3613;48.902;9.204;2023-10-19T06:21:21;9.90;99.90
7143;DHT22;3613;48.902;9.204;2023-10-19T06:23:46;10.10;99.90
7143;DHT22;3613;48.902;9.204;2023-10-19T06:26:12;10.10;99.90
7143;DHT22;3613;48.902;9.204;2023-10-19T06:28:39;10.30;99.90
7143;DHT22;3613;48.902;9.204;2023-10-19T06:31:06;10.40;99.90
7143;DHT22;3613;48.902;9.204;2023-10-19T06:33:31;10.50;99.90
7143;DHT22;3613;48.902;9.204;2023-10-19T06:35:59;10.60;99.90
7143;DHT22;3613;48.902;9.204;2023-10-19T06:38:25;10.60;99.90
7143;DHT22;3613;48.902;9.204;2023-10-19T06:40:51;10.60;99.90
7143;DHT22;3613;48.902;9.204;2023-10-19T06:43:19;10.80;99.90
7143;DHT22;3613;48.902;9.204;2023-10-19T06:45:51;10.80;99.90
7143;DHT22;3613;48.902;9.204;2023-10-19T06:48:20;10.90;99.90
7143;DHT22;3613;48.902;9.204;2023-10-19T06:50:46;11.00;99.90
7143;DHT22;3613;48.902;9.204;2023-10-19T06:53:12;11.00;99.90
7143;DHT22;3613;48.902;9.204;2023-10-19T06:55:37;11.00;99.90
7143;DHT22;3613;48.902;9.204;2023-10-19T06:58:03;11.10;99.90
7143;DHT22;3613;48.902;9.204;2023-10-19T07:00:30;11.30;99.90
7143;DHT22;3613;48.902;9.204;2023-10-19T07:02:59;11.20;99.90
7143;DHT22;3613;48.902;9.204;2023-10-19T07:05:28;11.40;99.90
7143;DHT22;3613;48.902;9.204;2023-10-19T07:08:00;11.60;99.90
7143;DHT22;3613;48.902;9.204;2023-10-19T07:10:36;11.80;99.90
7143;DHT22;3613;48.902;9.204;2023-10-19T07:13:02;12.00;99.90
7143;DHT22;3613;48.902;9.204;2023-10-19T07:15:29;12.00;99.90
7143;DHT22;3613;48.902;9.204;2023-10-19T07:17:55;12.00;99.90
7143;DHT22;3613;48.902;9.204;2023-10-19T07:20:22;11.80;99.90
7143;DHT22;3613;48.902;9.204;2023-10-19T07:22:51;11.90;99.90
7143;DHT22;3613;48.902;9.204;2023-10-19T07:25:17;11.90;99.90
7143;DHT22;3613;48.902;9.204;2023-10-19T07:27:48;12.00;99.90
7143;DHT22;3613;48.902;9.204;2023-10-19T07:30:13;12.00;99.90
7143;DHT22;3613;48.902;9.204;2023-10-19T07:32:46;12.10;99.90
7143;DHT22;3613;48.902;9.204;2023-10-19T07:35:16;12.30;99.90
7143;DHT22;3613;48.902;9.204;2023-10-19T07:37:42;12.40;99.90
7143;DHT22;3613;48.902;9.204;2023-10-19T07:40:09;12.50;99.90
7143;DHT22;3613;48.902;9.204;2023-10-19T07:42:39;12.60;99.90
7143;DHT22;3613;48.902;9.204;2023-10-19T07:45:06;12.80;99.90
7143;DHT22;3613;48.902;9.204;2023-10-19T07:47:34;12.90;99.90
7143;DHT22;3613;48.902;9.204;2023-10-19T07:50:00;13.10;99.90
7143;DHT22;3613;48.902;9.204;2023-10-19T07:52:28;13.10;99.90
7143;DHT22;3613;48.902;9.204;2023-10-19T07:54:54;13.30;99.90
7143;DHT22;3613;48.902;9.204;2023-10-19T07:57:19;13.50;99.90
7143;DHT22;3613;48.902;9.204;2023-10-19T07:59:45;13.60;99.90
7143;DHT22;3613;48.902;9.204;2023-10-19T08:02:13;13.70;99.90
7143;DHT22;3613;48.902;9.204;2023-10-19T08:04:41;13.70;99.90
7143;DHT22;3613;48.902;9.204;2023-10-19T08:07:07;13.60;99.90
7143;DHT22;3613;48.902;9.204;2023-10-19T08:09:35;13.50;99.90
7143;DHT22;3613;48.902;9.204;2023-10-19T08:12:04;13.60;99.90
7143;DHT22;3613;48.902;9.204;2023-10-19T08:14:31;13.70;99.90
7143;DHT22;3613;48.902;9.204;2023-10-19T08:17:00;14.00;99.90
7143;DHT22;3613;48.902;9.204;2023-10-19T08:19:30;14.50;99.90
7143;DHT22;3613;48.902;9.204;2023-10-19T08:21:56;14.70;99.90
7143;DHT22;3613;48.902;9.204;2023-10-19T08:24:24;14.70;99.90
7143;DHT22;3613;48.902;9.204;2023-10-19T08:26:50;14.60;99.90
7143;DHT22;3613;48.902;9.204;2023-10-19T08:29:16;14.60;99.90
7143;DHT22;3613;48.902;9.204;2023-10-19T08:31:48;14.70;99.90
7143;DHT22;3613;48.902;9.204;2023-10-19T08:34:19;15.20;99.90
7143;DHT22;3613;48.902;9.204;2023-10-19T08:36:50;15.60;99.90
7143;DHT22;3613;48.902;9.204;2023-10-19T08:39:19;16.10;99.90
7143;DHT22;3613;48.902;9.204;2023-10-19T08:41:45;16.70;99.90
7143;DHT22;3613;48.902;9.204;2023-10-19T08:44:13;17.20;99.90
7143;DHT22;3613;48.902;9.204;2023-10-19T08:46:44;17.90;99.90
7143;DHT22;3613;48.902;9.204;2023-10-19T08:49:20;18.30;1.00
7143;DHT22;3613;48.902;9.204;2023-10-19T08:51:47;18.40;1.00
7143;DHT22;3613;48.902;9.204;2023-10-19T08:54:16;18.30;99.90
7143;DHT22;3613;48.902;9.204;2023-10-19T08:56:45;18.40;1.00
7143;DHT22;3613;48.902;9.204;2023-10-19T08:59:14;18.10;99.90
7143;DHT22;3613;48.902;9.204;2023-10-19T09:01:45;18.20;47.00
7143;DHT22;3613;48.902;9.204;2023-10-19T09:04:13;18.20;1.00
7143;DHT22;3613;48.902;9.204;2023-10-19T09:06:39;20.00;1.00
7143;DHT22;3613;48.902;9.204;2023-10-19T09:09:09;19.20;99.90
7143;DHT22;3613;48.902;9.204;2023-10-19T09:11:41;19.30;99.90
7143;DHT22;3613;48.902;9.204;2023-10-19T09:14:07;19.20;99.90
7143;DHT22;3613;48.902;9.204;2023-10-19T09:16:32;19.40;99.90
7143;DHT22;3613;48.902;9.204;2023-10-19T09:18:59;19.70;99.90
7143;DHT22;3613;48.902;9.204;2023-10-19T09:21:24;19.70;1.40
7143;DHT22;3613;48.902;9.204;2023-10-19T09:23:57;19.60;1.00
7143;DHT22;3613;48.902;9.204;2023-10-19T09:26:25;20.00;1.00
7143;DHT22;3613;48.902;9.204;2023-10-19T09:28:52;20.50;1.00
7143;DHT22;3613;48.902;9.204;2023-10-19T09:31:21;21.00;1.00
7143;DHT22;3613;48.902;9.204;2023-10-19T09:33:52;21.10;1.00
7143;DHT22;3613;48.902;9.204;2023-10-19T09:36:27;21.10;1.00
7143;DHT22;3613;48.902;9.204;2023-10-19T09:38:55;21.10;1.00
7143;DHT22;3613;48.902;9.204;2023-10-19T09:41:26;21.10;1.00
7143;DHT22;3613;48.902;9.204;2023-10-19T09:44:01;21.30;99.90
7143;DHT22;3613;48.902;9.204;2023-10-19T09:46:32;21.20;99.90
7143;DHT22;3613;48.902;9.204;2023-10-19T09:49:00;20.60;1.00
7143;DHT22;3613;48.902;9.204;2023-10-19T09:51:31;20.70;99.90
7143;DHT22;3613;48.902;9.204;2023-10-19T09:56:32;20.50;27.20
7143;DHT22;3613;48.902;9.204;2023-10-19T09:59:05;20.40;1.00
7143;DHT22;3613;48.902;9.204;2023-10-19T10:02:09;20.50;1.00
7143;DHT22;3613;48.902;9.204;2023-10-19T10:04:38;20.60;99.90
7143;DHT22;3613;48.902;9.204;2023-10-19T10:07:06;20.50;1.00
7143;DHT22;3613;48.902;9.204;2023-10-19T10:09:38;20.40;1.00
7143;DHT22;3613;48.902;9.204;2023-10-19T10:12:20;20.40;1.00
7143;DHT22;3613;48.902;9.204;2023-10-19T10:14:58;19.40;99.90
7143;DHT22;3613;48.902;9.204;2023-10-19T10:17:27;20.00;1.00
7143;DHT22;3613;48.902;9.204;2023-10-19T10:22:39;19.90;99.90
7143;DHT22;3613;48.902;9.204;2023-10-19T10:25:07;20.00;1.00
7143;DHT22;3613;48.902;9.204;2023-10-19T10:30:00;20.00;99.90
7143;DHT22;3613;48.902;9.204;2023-10-19T10:32:51;19.80;1.00
7143;DHT22;3613;48.902;9.204;2023-10-19T10:38:15;19.60;99.90
7143;DHT22;3613;48.902;9.204;2023-10-19T10:40:48;19.60;2.20
7143;DHT22;3613;48.902;9.204;2023-10-19T10:43:15;19.80;1.00
7143;DHT22;3613;48.902;9.204;2023-10-19T10:48:15;20.20;1.00
7143;DHT22;3613;48.902;9.204;2023-10-19T10:53:10;20.20;99.90
7143;DHT22;3613;48.902;9.204;2023-10-19T10:55:37;20.30;1.00
7143;DHT22;3613;48.902;9.204;2023-10-19T10:58:02;20.10;1.00
7143;DHT22;3613;48.902;9.204;2023-10-19T11:00:28;20.20;57.60
7143;DHT22;3613;48.902;9.204;2023-10-19T11:03:03;20.10;50.30
7143;DHT22;3613;48.902;9.204;2023-10-19T11:05:30;20.20;99.90
7143;DHT22;3613;48.902;9.204;2023-10-19T11:08:14;20.20;99.90
7143;DHT22;3613;48.902;9.204;2023-10-19T11:10:42;20.20;99.90
7143;DHT22;3613;48.902;9.204;2023-10-19T11:13:13;20.20;99.90
7143;DHT22;3613;48.902;9.204;2023-10-19T11:15:47;20.10;1.00
7143;DHT22;3613;48.902;9.204;2023-10-19T11:18:40;19.80;1.00
7143;DHT22;3613;48.902;9.204;2023-10-19T11:21:14;19.50;1.00
7143;DHT22;3613;48.902;9.204;2023-10-19T11:23:41;19.40;1.00
7143;DHT22;3613;48.902;9.204;2023-10-19T11:26:08;19.40;1.00
7143;DHT22;3613;48.902;9.204;2023-10-19T11:28:38;19.20;1.00
7143;DHT22;3613;48.902;9.204;2023-10-19T11:31:26;19.00;93.30
7143;DHT22;3613;48.902;9.204;2023-10-19T11:33:54;18.50;1.00
7143;DHT22;3613;48.902;9.204;2023-10-19T11:36:21;18.10;1.00
7143;DHT22;3613;48.902;9.204;2023-10-19T11:38:52;17.70;99.90
7143;DHT22;3613;48.902;9.204;2023-10-19T11:41:21;17.30;1.00
7143;DHT22;3613;48.902;9.204;2023-10-19T11:43:47;17.10;1.00
7143;DHT22;3613;48.902;9.204;2023-10-19T11:46:14;16.80;1.00
7143;DHT22;3613;48.902;9.204;2023-10-19T11:48:40;16.70;1.00
7143;DHT22;3613;48.902;9.204;2023-10-19T11:51:09;16.50;6.80
7143;DHT22;3613;48.902;9.204;2023-10-19T11:53:39;16.40;58.30
7143;DHT22;3613;48.902;9.204;2023-10-19T11:56:12;16.50;99.90
7143;DHT22;3613;48.902;9.204;2023-10-19T11:58:40;16.30;99.90
7143;DHT22;3613;48.902;9.204;2023-10-19T12:01:12;16.30;99.90
7143;DHT22;3613;48.902;9.204;2023-10-19T12:03:41;16.20;99.90
7143;DHT22;3613;48.902;9.204;2023-10-19T12:06:10;16.10;99.90
7143;DHT22;3613;48.902;9.204;2023-10-19T12:08:37;16.00;99.90
7143;DHT22;3613;48.902;9.204;2023-10-19T12:11:06;16.00;99.90
7143;DHT22;3613;48.902;9.204;2023-10-19T12:13:42;16.00;99.90
7143;DHT22;3613;48.902;9.204;2023-10-19T12:16:11;16.00;99.90
7143;DHT22;3613;48.902;9.204;2023-10-19T12:18:43;16.00;99.90
7143;DHT22;3613;48.902;9.204;2023-10-19T12:21:12;16.10;99.90
7143;DHT22;3613;48.902;9.204;2023-10-19T12:23:44;15.90;99.90
7143;DHT22;3613;48.902;9.204;2023-10-19T12:26:10;16.00;99.90
7143;DHT22;3613;48.902;9.204;2023-10-19T12:28:39;15.90;99.90
7143;DHT22;3613;48.902;9.204;2023-10-19T12:31:09;15.90;99.90
7143;DHT22;3613;48.902;9.204;2023-10-19T12:33:39;15.80;99.90
7143;DHT22;3613;48.902;9.204;2023-10-19T12:36:07;15.70;99.90
7143;DHT22;3613;48.902;9.204;2023-10-19T12:38:52;15.60;99.90
7143;DHT22;3613;48.902;9.204;2023-10-19T12:41:21;15.80;99.90
7143;DHT22;3613;48.902;9.204;2023-10-19T12:43:47;15.80;99.90
7143;DHT22;3613;48.902;9.204;2023-10-19T12:46:17;15.80;99.90
7143;DHT22;3613;48.902;9.204;2023-10-19T12:48:47;16.00;99.90
7143;DHT22;3613;48.902;9.204;2023-10-19T12:51:12;15.90;99.90
7143;DHT22;3613;48.902;9.204;2023-10-19T12:53:39;15.90;99.90
7143;DHT22;3613;48.902;9.204;2023-10-19T12:56:05;16.00;99.90
7143;DHT22;3613;48.902;9.204;2023-10-19T12:58:35;15.90;99.90
7143;DHT22;3613;48.902;9.204;2023-10-19T13:01:01;15.90;99.90
7143;DHT22;3613;48.902;9.204;2023-10-19T13:03:26;15.80;99.90
7143;DHT22;3613;48.902;9.204;2023-10-19T13:05:53;15.90;99.90
7143;DHT22;3613;48.902;9.204;2023-10-19T13:08:23;16.00;99.90
7143;DHT22;3613;48.902;9.204;2023-10-19T13:10:52;16.00;99.90
7143;DHT22;3613;48.902;9.204;2023-10-19T13:13:18;16.00;99.90
7143;DHT22;3613;48.902;9.204;2023-10-19T13:15:48;15.90;99.90
7143;DHT22;3613;48.902;9.204;2023-10-19T13:18:14;15.90;99.90
7143;DHT22;3613;48.902;9.204;2023-10-19T13:20:46;15.90;99.90
7143;DHT22;3613;48.902;9.204;2023-10-19T13:23:16;15.90;99.90
7143;DHT22;3613;48.902;9.204;2023-10-19T13:25:49;15.80;99.90
7143;DHT22;3613;48.902;9.204;2023-10-19T13:28:19;15.80;99.90
7143;DHT22;3613;48.902;9.204;2023-10-19T13:30:52;14.90;99.90
7143;DHT22;3613;48.902;9.204;2023-10-19T13:33:21;15.90;99.90
7143;DHT22;3613;48.902;9.204;2023-10-19T13:35:49;16.00;99.90
7143;DHT22;3613;48.902;9.204;2023-10-19T13:38:17;16.00;99.90
7143;DHT22;3613;48.902;9.204;2023-10-19T13:40:46;16.00;99.90
7143;DHT22;3613;48.902;9.204;2023-10-19T13:43:12;16.00;99.90
7143;DHT22;3613;48.902;9.204;2023-10-19T13:45:44;16.10;99.90
7143;DHT22;3613;48.902;9.204;2023-10-19T13:48:13;16.10;99.90
7143;DHT22;3613;48.902;9.204;2023-10-19T13:50:47;16.20;99.90
7143;DHT22;3613;48.902;9.204;2023-10-19T13:53:26;16.10;99.90
7143;DHT22;3613;48.902;9.204;2023-10-19T13:55:52;16.10;99.90
7143;DHT22;3613;48.902;9.204;2023-10-19T13:58:18;16.20;99.90
7143;DHT22;3613;48.902;9.204;2023-10-19T14:00:46;16.10;99.90
7143;DHT22;3613;48.902;9.204;2023-10-19T14:03:13;16.10;99.90
7143;DHT22;3613;48.902;9.204;2023-10-19T14:05:43;15.90;99.90
7143;DHT22;3613;48.902;9.204;2023-10-19T14:08:13;15.80;99.90
7143;DHT22;3613;48.902;9.204;2023-10-19T14:10:41;15.90;99.90
7143;DHT22;3613;48.902;9.204;2023-10-19T14:13:10;15.90;99.90
7143;DHT22;3613;48.902;9.204;2023-10-19T14:15:37;15.90;99.90
7143;DHT22;3613;48.902;9.204;2023-10-19T14:18:03;15.90;99.90
7143;DHT22;3613;48.902;9.204;2023-10-19T14:20:32;16.00;99.90
7143;DHT22;3613;48.902;9.204;2023-10-19T14:23:00;16.10;99.90
7143;DHT22;3613;48.902;9.204;2023-10-19T14:25:29;16.10;99.90
7143;DHT22;3613;48.902;9.204;2023-10-19T14:27:58;15.90;99.90
7143;DHT22;3613;48.902;9.204;2023-10-19T14:30:32;15.90;99.90
7143;DHT22;3613;48.902;9.204;2023-10-19T14:33:02;15.80;99.90
7143;DHT22;3613;48.902;9.204;2023-10-19T14:35:31;15.80;99.90
7143;DHT22;3613;48.902;9.204;2023-10-19T14:38:00;15.80;99.90
7143;DHT22;3613;48.902;9.204;2023-10-19T14:40:27;15.70;99.90
7143;DHT22;3613;48.902;9.204;2023-10-19T14:42:54;15.60;99.90
7143;DHT22;3613;48.902;9.204;2023-10-19T14:45:25;15.80;99.90
7143;DHT22;3613;48.902;9.204;2023-10-19T14:47:58;15.70;99.90
7143;DHT22;3613;48.902;9.204;2023-10-19T14:50:27;15.70;99.90
7143;DHT22;3613;48.902;9.204;2023-10-19T14:52:55;15.70;99.90
7143;DHT22;3613;48.902;9.204;2023-10-19T14:55:21;15.80;99.90
7143;DHT22;3613;48.902;9.204;2023-10-19T14:57:49;15.80;99.90
7143;DHT22;3613;48.902;9.204;2023-10-19T15:00:22;15.70;99.90
7143;DHT22;3613;48.902;9.204;2023-10-19T15:02:54;15.70;99.90
7143;DHT22;3613;48.902;9.204;2023-10-19T15:05:23;15.70;99.90
7143;DHT22;3613;48.902;9.204;2023-10-19T15:07:54;15.70;99.90
7143;DHT22;3613;48.902;9.204;2023-10-19T15:10:23;15.60;99.90
7143;DHT22;3613;48.902;9.204;2023-10-19T15:12:53;15.50;99.90
7143;DHT22;3613;48.902;9.204;2023-10-19T15:15:19;15.50;99.90
7143;DHT22;3613;48.902;9.204;2023-10-19T15:17:45;15.50;99.90
7143;DHT22;3613;48.902;9.204;2023-10-19T15:20:13;15.40;99.90
7143;DHT22;3613;48.902;9.204;2023-10-19T15:22:40;16.20;99.90
7143;DHT22;3613;48.902;9.204;2023-10-19T15:25:09;15.50;99.90
7143;DHT22;3613;48.902;9.204;2023-10-19T15:27:43;15.50;99.90
7143;DHT22;3613;48.902;9.204;2023-10-19T15:30:11;15.60;99.90
7143;DHT22;3613;48.902;9.204;2023-10-19T15:32:38;15.50;99.90
7143;DHT22;3613;48.902;9.204;2023-10-19T15:35:07;15.50;99.90
7143;DHT22;3613;48.902;9.204;2023-10-19T15:37:35;15.50;99.90
7143;DHT22;3613;48.902;9.204;2023-10-19T15:40:02;15.40;99.90
7143;DHT22;3613;48.902;9.204;2023-10-19T15:42:29;15.50;99.90
7143;DHT22;3613;48.902;9.204;2023-10-19T15:44:55;15.50;99.90
7143;DHT22;3613;48.902;9.204;2023-10-19T15:47:21;15.40;99.90
7143;DHT22;3613;48.902;9.204;2023-10-19T15:49:49;15.40;99.90
7143;DHT22;3613;48.902;9.204;2023-10-19T15:52:22;15.40;99.90
7143;DHT22;3613;48.902;9.204;2023-10-19T15:54:49;15.30;99.90
7143;DHT22;3613;48.902;9.204;2023-10-19T15:57:18;15.30;99.90
7143;DHT22;3613;48.902;9.204;2023-10-19T15:59:46;15.30;99.90
7143;DHT22;3613;48.902;9.204;2023-10-19T16:02:13;15.20;99.90
7143;DHT22;3613;48.902;9.204;2023-10-19T16:04:45;15.20;99.90
7143;DHT22;3613;48.902;9.204;2023-10-19T16:07:12;15.20;99.90
7143;DHT22;3613;48.902;9.204;2023-10-19T16:09:39;15.10;99.90
7143;DHT22;3613;48.902;9.204;2023-10-19T16:12:05;15.10;99.90
7143;DHT22;3613;48.902;9.204;2023-10-19T16:14:36;15.10;99.90
7143;DHT22;3613;48.902;9.204;2023-10-19T16:17:03;15.10;99.90
7143;DHT22;3613;48.902;9.204;2023-10-19T16:19:35;15.10;99.90
7143;DHT22;3613;48.902;9.204;2023-10-19T16:22:00;15.10;99.90
7143;DHT22;3613;48.902;9.204;2023-10-19T16:24:29;15.00;99.90
7143;DHT22;3613;48.902;9.204;2023-10-19T16:26:55;15.00;99.90
7143;DHT22;3613;48.902;9.204;2023-10-19T16:29:23;15.00;99.90
7143;DHT22;3613;48.902;9.204;2023-10-19T16:31:51;15.00;99.90
7143;DHT22;3613;48.902;9.204;2023-10-19T16:34:18;14.90;99.90
7143;DHT22;3613;48.902;9.204;2023-10-19T16:36:47;14.90;99.90
7143;DHT22;3613;48.902;9.204;2023-10-19T16:39:13;14.90;99.90
7143;DHT22;3613;48.902;9.204;2023-10-19T16:41:45;14.90;99.90
7143;DHT22;3613;48.902;9.204;2023-10-19T16:44:11;14.90;99.90
7143;DHT22;3613;48.902;9.204;2023-10-19T16:46:37;15.00;99.90
7143;DHT22;3613;48.902;9.204;2023-10-19T16:49:04;14.90;99.90
7143;DHT22;3613;48.902;9.204;2023-10-19T16:51:31;14.90;99.90
7143;DHT22;3613;48.902;9.204;2023-10-19T16:53:58;14.90;99.90
7143;DHT22;3613;48.902;9.204;2023-10-19T16:56:24;14.90;99.90
7143;DHT22;3613;48.902;9.204;2023-10-19T16:58:49;14.90;99.90
7143;DHT22;3613;48.902;9.204;2023-10-19T17:01:18;14.90;99.90
7143;DHT22;3613;48.902;9.204;2023-10-19T17:03:46;14.90;99.90
7143;DHT22;3613;48.902;9.204;2023-10-19T17:06:13;14.90;99.90
7143;DHT22;3613;48.902;9.204;2023-10-19T17:08:39;14.90;99.90
7143;DHT22;3613;48.902;9.204;2023-10-19T17:11:06;14.90;99.90
7143;DHT22;3613;48.902;9.204;2023-10-19T17:13:37;14.90;99.90
7143;DHT22;3613;48.902;9.204;2023-10-19T17:16:03;15.00;99.90
7143;DHT22;3613;48.902;9.204;2023-10-19T17:18:32;14.90;99.90
7143;DHT22;3613;48.902;9.204;2023-10-19T17:21:00;14.90;99.90
7143;DHT22;3613;48.902;9.204;2023-10-19T17:23:26;14.90;99.90
7143;DHT22;3613;48.902;9.204;2023-10-19T17:25:54;15.00;99.90
7143;DHT22;3613;48.902;9.204;2023-10-19T17:28:22;15.00;99.90
7143;DHT22;3613;48.902;9.204;2023-10-19T17:30:48;14.90;99.90
7143;DHT22;3613;48.902;9.204;2023-10-19T17:33:16;14.90;99.90
7143;DHT22;3613;48.902;9.204;2023-10-19T17:35:41;14.80;99.90
7143;DHT22;3613;48.902;9.204;2023-10-19T17:38:07;14.80;99.90
7143;DHT22;3613;48.902;9.204;2023-10-19T17:40:33;14.80;99.90
7143;DHT22;3613;48.902;9.204;2023-10-19T17:42:59;14.80;99.90
7143;DHT22;3613;48.902;9.204;2023-10-19T17:45:25;14.80;99.90
7143;DHT22;3613;48.902;9.204;2023-10-19T17:47:52;14.80;99.90
7143;DHT22;3613;48.902;9.204;2023-10-19T17:50:20;14.80;99.90